createdAt,value
2019-05-18T00:00:45.011Z,33.38
2019-05-18T00:03:20.212Z,34.65
2019-05-18T00:05:53.784Z,31.25
2019-05-18T00:08:27.372Z,38.40
2019-05-18T00:11:01.945Z,35.23
2019-05-18T00:13:35.747Z,34.80
2019-05-18T00:16:09.332Z,33.42
2019-05-18T00:18:43.040Z,39.63
2019-05-18T00:21:16.711Z,31.20
2019-05-18T00:23:52.115Z,37.20
2019-05-18T00:29:30.551Z,32.30
2019-05-18T00:32:10.710Z,36.13
2019-05-18T00:34:44.432Z,32.65
2019-05-18T00:37:18.600Z,31.87
2019-05-18T00:43:05.781Z,33.58
2019-05-18T00:45:45.185Z,33.58
2019-05-18T00:48:18.825Z,30.85
2019-05-18T00:50:52.498Z,33.13
2019-05-18T00:53:26.125Z,30.82
2019-05-18T00:56:00.710Z,32.17
2019-05-18T00:58:34.413Z,34.45
2019-05-18T01:02:11.853Z,29.27
2019-05-18T01:03:53.824Z,30.50
2019-05-18T01:06:27.522Z,33.23
2019-05-18T01:09:02.191Z,31.65
2019-05-18T01:11:48.791Z,40.63
2019-05-18T01:14:22.472Z,35.52
2019-05-18T01:16:56.993Z,39.50
2019-05-18T01:22:17.294Z,33.23
2019-05-18T01:27:48.953Z,34.98
2019-05-18T01:30:23.042Z,34.45
2019-05-18T01:33:11.829Z,38.02
2019-05-18T01:35:45.561Z,34.80
2019-05-18T01:38:36.719Z,44.67
2019-05-18T01:41:10.405Z,31.70
2019-05-18T01:43:44.988Z,35.38
2019-05-18T01:46:27.123Z,33.73
2019-05-18T01:49:00.953Z,35.75
2019-05-18T01:51:35.639Z,39.18
2019-05-18T01:54:09.340Z,34.63
2019-05-18T01:56:43.186Z,39.38
2019-05-18T01:59:17.899Z,31.50
2019-05-18T02:01:51.603Z,29.85
2019-05-18T02:04:25.283Z,35.40
2019-05-18T02:06:58.927Z,29.18
2019-05-18T02:09:32.533Z,30.27
2019-05-18T02:12:06.245Z,34.92
2019-05-18T02:14:39.936Z,35.98
2019-05-18T02:17:13.633Z,31.15
2019-05-18T02:19:47.354Z,34.50
2019-05-18T02:22:21.020Z,34.55
2019-05-18T02:25:10.840Z,33.02
2019-05-18T02:27:48.321Z,30.75
2019-05-18T02:30:22.223Z,29.82
2019-05-18T02:32:55.885Z,37.23
2019-05-18T02:35:29.590Z,36.03
2019-05-18T02:38:19.567Z,34.13
2019-05-18T02:40:54.293Z,32.10
2019-05-18T02:43:40.623Z,31.73
2019-05-18T02:46:14.338Z,28.17
2019-05-18T02:48:50.515Z,34.25
2019-05-18T02:51:23.741Z,34.63
2019-05-18T02:53:57.394Z,31.70
2019-05-18T02:56:31.096Z,38.67
2019-05-18T02:59:04.826Z,34.63
2019-05-18T03:01:38.498Z,29.85
2019-05-18T03:04:12.209Z,26.10
2019-05-18T03:06:45.984Z,32.42
2019-05-18T03:09:19.773Z,30.85
2019-05-18T03:11:54.013Z,32.53
2019-05-18T03:14:27.929Z,33.18
2019-05-18T03:17:01.590Z,29.02
2019-05-18T03:19:35.468Z,30.82
2019-05-18T03:22:09.170Z,32.13
2019-05-18T03:24:42.870Z,27.58
2019-05-18T03:27:16.540Z,31.90
2019-05-18T03:29:50.152Z,34.60
2019-05-18T03:32:23.756Z,32.10
2019-05-18T03:34:57.416Z,28.00
2019-05-18T03:37:30.980Z,31.10
2019-05-18T03:40:07.046Z,33.23
2019-05-18T03:42:40.724Z,29.00
2019-05-18T03:45:15.428Z,24.55
2019-05-18T03:47:50.946Z,27.27
2019-05-18T03:50:26.483Z,37.58
2019-05-18T03:53:00.165Z,37.13
2019-05-18T03:55:34.105Z,31.90
2019-05-18T03:58:08.723Z,28.38
2019-05-18T04:00:42.743Z,30.17
2019-05-18T04:03:16.614Z,31.45
2019-05-18T04:05:51.846Z,25.10
2019-05-18T04:08:25.520Z,32.70
2019-05-18T04:10:59.235Z,27.55
2019-05-18T04:13:32.961Z,27.13
2019-05-18T04:16:07.550Z,25.65
2019-05-18T04:18:41.113Z,22.25
2019-05-18T04:21:14.918Z,23.52
2019-05-18T04:23:48.565Z,25.32
2019-05-18T04:26:22.247Z,21.87
2019-05-18T04:28:55.952Z,22.70
2019-05-18T04:31:32.207Z,21.85
2019-05-18T04:34:04.923Z,19.35
2019-05-18T04:36:38.631Z,21.77
2019-05-18T04:39:12.293Z,19.65
2019-05-18T04:41:45.983Z,20.55
2019-05-18T04:44:19.657Z,20.40
2019-05-18T04:46:53.377Z,21.80
2019-05-18T04:49:27.054Z,23.80
2019-05-18T04:52:00.756Z,24.72
2019-05-18T04:54:35.291Z,20.50
2019-05-18T04:57:08.892Z,17.57
2019-05-18T04:59:43.002Z,21.40
2019-05-18T05:02:20.483Z,24.50
2019-05-18T05:04:56.776Z,20.32
2019-05-18T05:07:31.133Z,20.90
2019-05-18T05:10:06.933Z,20.12
2019-05-18T05:12:40.897Z,21.27
2019-05-18T05:15:15.687Z,22.62
2019-05-18T05:17:49.754Z,24.47
2019-05-18T05:20:23.788Z,24.63
2019-05-18T05:22:57.642Z,21.02
2019-05-18T05:25:31.708Z,18.65
2019-05-18T05:28:05.506Z,20.08
2019-05-18T05:30:39.627Z,16.67
2019-05-18T05:33:13.589Z,15.40
2019-05-18T05:35:47.842Z,16.55
2019-05-18T05:38:22.351Z,17.48
2019-05-18T05:40:56.371Z,17.48
2019-05-18T05:43:30.033Z,16.40
2019-05-18T05:46:04.046Z,12.20
2019-05-18T05:48:37.612Z,14.70
2019-05-18T05:51:11.328Z,10.95
2019-05-18T05:53:53.099Z,8.98
2019-05-18T05:56:26.835Z,8.70
2019-05-18T05:59:00.904Z,11.53
2019-05-18T06:01:35.262Z,9.23
2019-05-18T06:04:08.925Z,11.78
2019-05-18T06:06:42.996Z,8.70
2019-05-18T06:09:16.972Z,9.93
2019-05-18T06:11:51.065Z,8.85
2019-05-18T06:14:25.627Z,9.50
2019-05-18T06:16:59.508Z,7.22
2019-05-18T06:19:33.510Z,7.65
2019-05-18T06:22:07.262Z,7.92
2019-05-18T06:24:40.905Z,7.10
2019-05-18T06:27:14.597Z,7.95
2019-05-18T06:29:48.262Z,10.82
2019-05-18T06:32:22.094Z,8.65
2019-05-18T06:34:55.754Z,7.37
2019-05-18T06:37:32.579Z,7.45
2019-05-18T06:40:08.787Z,14.00
2019-05-18T06:42:45.745Z,8.03
2019-05-18T06:45:19.866Z,7.83
2019-05-18T06:47:53.932Z,8.68
2019-05-18T06:50:32.273Z,7.50
2019-05-18T06:53:06.813Z,8.10
2019-05-18T06:55:42.132Z,9.53
2019-05-18T06:58:17.128Z,7.35
2019-05-18T07:00:50.763Z,7.80
2019-05-18T07:03:24.608Z,8.90
2019-05-18T07:05:58.664Z,9.28
2019-05-18T07:08:32.364Z,8.15
2019-05-18T07:11:07.446Z,9.40
2019-05-18T07:13:41.130Z,10.48
2019-05-18T08:28:36.081Z,7.75
2019-05-18T08:31:10.354Z,7.80
2019-05-18T08:33:44.915Z,7.50
2019-05-18T08:36:18.494Z,6.85
2019-05-18T08:38:52.904Z,5.75
2019-05-18T08:41:27.063Z,6.30
2019-05-18T08:44:00.808Z,6.20
2019-05-18T08:46:34.631Z,6.15
2019-05-18T08:49:08.324Z,8.00
2019-05-18T08:51:41.869Z,6.55
2019-05-18T08:54:15.984Z,6.10
2019-05-18T08:56:49.742Z,7.10
2019-05-18T08:59:23.402Z,7.53
2019-05-18T09:01:57.173Z,8.68
2019-05-18T09:04:32.402Z,7.85
2019-05-18T09:07:06.408Z,12.55
2019-05-18T09:09:40.296Z,8.30
2019-05-18T09:12:13.984Z,6.42
2019-05-18T09:14:47.753Z,8.75
2019-05-18T09:17:22.018Z,7.33
2019-05-18T09:19:56.028Z,8.28
2019-05-18T09:22:29.767Z,9.30
2019-05-18T09:25:03.679Z,6.05
2019-05-18T09:27:37.648Z,9.80
2019-05-18T09:30:12.653Z,7.42
2019-05-18T09:32:46.393Z,7.03
2019-05-18T09:35:21.587Z,10.20
2019-05-18T09:37:57.283Z,9.75
2019-05-18T09:40:31.378Z,8.35
2019-05-18T09:43:05.094Z,7.22
2019-05-18T09:45:38.924Z,8.05
2019-05-18T09:48:12.749Z,7.67
2019-05-18T09:50:46.513Z,8.10
2019-05-18T09:53:20.377Z,10.08
2019-05-18T09:55:54.073Z,6.78
2019-05-18T09:58:27.794Z,15.43
2019-05-18T10:01:01.540Z,6.45
2019-05-18T10:03:35.458Z,6.92
2019-05-18T10:06:09.551Z,6.55
2019-05-18T10:08:43.663Z,6.03
2019-05-18T10:11:17.343Z,8.40
2019-05-18T10:13:50.909Z,6.12
2019-05-18T10:16:24.463Z,11.95
2019-05-18T10:18:58.150Z,6.37
2019-05-18T10:21:31.754Z,6.62
2019-05-18T10:24:06.153Z,6.47
2019-05-18T10:26:40.714Z,8.13
2019-05-18T10:29:14.454Z,10.40
2019-05-18T10:31:48.043Z,7.47
2019-05-18T10:34:21.743Z,5.75
2019-05-18T10:36:55.262Z,7.95
2019-05-18T10:39:29.628Z,8.38
2019-05-18T10:42:03.246Z,7.97
2019-05-18T10:44:36.832Z,6.65
2019-05-18T10:47:10.698Z,5.83
2019-05-18T10:49:44.293Z,5.37
2019-05-18T10:52:17.965Z,6.17
2019-05-18T10:54:51.631Z,7.92
2019-05-18T10:57:25.306Z,6.28
2019-05-18T10:59:58.997Z,6.78
2019-05-18T11:02:38.215Z,6.05
2019-05-18T11:09:13.716Z,6.62
2019-05-18T11:11:47.696Z,7.22
2019-05-18T11:14:21.899Z,4.95
2019-05-18T11:16:58.363Z,5.05
2019-05-18T11:19:32.574Z,7.33
2019-05-18T11:22:06.570Z,5.45
2019-05-18T11:24:40.602Z,4.75
2019-05-18T11:27:15.273Z,5.30
2019-05-18T11:29:48.962Z,7.12
2019-05-18T11:32:23.518Z,5.20
2019-05-18T11:34:57.722Z,5.92
2019-05-18T11:37:31.720Z,8.28
2019-05-18T11:40:08.679Z,5.53
2019-05-18T11:42:42.330Z,5.72
2019-05-18T11:45:18.920Z,7.00
2019-05-18T11:47:53.223Z,5.55
2019-05-18T11:50:27.809Z,5.15
2019-05-18T11:53:02.622Z,4.95
2019-05-18T11:55:37.361Z,5.55
2019-05-18T11:58:12.013Z,6.22
2019-05-18T12:00:46.827Z,3.62
2019-05-18T12:30:11.018Z,4.37
2019-05-18T12:32:45.676Z,4.05
2019-05-18T12:35:19.795Z,3.90
2019-05-18T12:37:53.532Z,3.85
2019-05-18T12:40:28.267Z,3.80
2019-05-18T12:43:02.105Z,3.62
2019-05-18T12:45:35.798Z,4.40
2019-05-18T12:48:09.633Z,5.30
2019-05-18T14:30:11.435Z,6.90
2019-05-18T14:32:46.699Z,5.25
2019-05-18T14:35:20.820Z,6.15
2019-05-18T14:37:55.076Z,8.13
2019-05-18T14:40:28.804Z,5.30
2019-05-18T14:43:10.076Z,6.00
2019-05-18T14:45:43.824Z,5.15
2019-05-18T14:48:17.470Z,5.42
2019-05-18T14:50:57.979Z,5.72
2019-05-18T14:53:31.875Z,6.08
2019-05-18T14:56:05.562Z,6.17
2019-05-18T14:58:39.204Z,6.28
2019-05-18T15:01:13.033Z,16.30
2019-05-18T15:03:46.748Z,5.42
2019-05-18T15:06:20.552Z,5.62
2019-05-18T15:08:54.499Z,7.28
2019-05-18T15:11:28.689Z,5.85
2019-05-18T15:14:02.628Z,10.18
2019-05-18T15:16:36.449Z,23.85
2019-05-18T15:19:11.122Z,5.35
2019-05-18T15:21:44.843Z,6.05
2019-05-18T15:24:19.548Z,5.33
2019-05-18T15:26:53.393Z,8.18
2019-05-18T15:29:27.951Z,7.92
2019-05-18T15:32:01.654Z,9.60
2019-05-18T15:34:37.881Z,10.18
2019-05-18T15:37:12.092Z,6.55
2019-05-18T15:39:46.175Z,8.83
2019-05-18T15:42:19.880Z,8.90
2019-05-18T15:44:53.568Z,17.00
2019-05-18T15:47:27.901Z,8.10
2019-05-18T15:57:17.563Z,20.37
2019-05-18T15:59:51.320Z,14.75
2019-05-18T16:02:25.121Z,11.40
2019-05-18T16:04:58.934Z,14.07
2019-05-18T16:07:32.643Z,9.90
2019-05-18T16:10:08.236Z,9.35
2019-05-18T16:12:41.901Z,7.85
2019-05-18T16:15:16.146Z,9.55
2019-05-18T16:17:49.809Z,6.85
2019-05-18T16:26:47.305Z,10.63
2019-05-18T16:26:57.728Z,12.28
2019-05-18T16:29:20.930Z,7.55
2019-05-18T16:31:56.011Z,8.23
2019-05-18T16:34:29.865Z,13.13
2019-05-18T17:23:18.942Z,15.15
2019-05-18T17:25:52.744Z,10.65
2019-05-18T17:28:26.369Z,8.83
2019-05-18T17:31:00.005Z,21.02
2019-05-18T17:33:33.770Z,17.75
2019-05-18T17:36:07.365Z,50.28
2019-05-18T17:38:41.106Z,39.90
2019-05-18T17:41:14.723Z,39.95
2019-05-18T17:43:48.609Z,30.97
2019-05-18T17:46:23.233Z,12.25
2019-05-18T17:48:56.860Z,34.90
2019-05-18T17:51:30.935Z,14.68
2019-05-18T17:54:04.712Z,11.63
2019-05-18T17:56:39.313Z,13.22
2019-05-18T17:59:13.609Z,11.15
2019-05-18T18:01:47.214Z,9.75
2019-05-18T18:04:20.801Z,12.80
2019-05-18T18:06:54.603Z,9.83
2019-05-18T18:09:28.322Z,12.82
2019-05-18T18:12:04.220Z,52.45
2019-05-18T18:14:38.164Z,109.85
2019-05-18T18:17:12.220Z,111.68
2019-05-18T18:19:47.836Z,82.72
2019-05-18T18:22:23.807Z,148.22
2019-05-18T18:25:01.174Z,213.85
2019-05-18T18:27:35.267Z,57.55
2019-05-18T18:30:10.640Z,32.13
2019-05-18T18:32:44.403Z,113.30
2019-05-18T18:35:18.393Z,57.35
2019-05-18T18:37:52.216Z,29.07
2019-05-18T18:40:26.056Z,32.50
2019-05-18T18:42:59.838Z,26.45
2019-05-18T18:45:33.565Z,25.50
2019-05-18T18:48:07.542Z,20.12
2019-05-18T18:50:42.638Z,16.97
2019-05-18T18:53:16.194Z,16.48
2019-05-18T18:55:49.906Z,22.02
2019-05-18T18:58:24.686Z,19.07
2019-05-18T19:00:58.404Z,19.73
2019-05-18T19:03:32.217Z,28.83
2019-05-18T19:06:09.216Z,25.30
2019-05-18T19:08:43.013Z,31.87
2019-05-18T19:11:16.735Z,25.80
2019-05-18T19:13:50.865Z,32.88
2019-05-18T19:16:24.573Z,29.10
2019-05-18T19:18:58.219Z,17.05
2019-05-18T19:21:32.257Z,19.67
2019-05-18T19:24:06.760Z,20.40
2019-05-18T19:26:40.753Z,23.92
2019-05-18T19:29:14.414Z,20.50
2019-05-18T19:31:48.133Z,20.15
2019-05-18T19:34:21.763Z,25.50
2019-05-18T19:36:55.690Z,25.25
2019-05-18T19:39:32.359Z,21.45
2019-05-18T19:42:06.517Z,25.60
2019-05-18T19:44:40.250Z,30.45
2019-05-18T19:47:14.357Z,41.20
2019-05-18T19:49:48.079Z,23.27
2019-05-18T19:52:21.769Z,21.95
2019-05-18T19:54:55.550Z,24.45
2019-05-18T19:57:29.639Z,24.00
2019-05-18T20:00:04.968Z,30.68
2019-05-18T20:02:39.984Z,35.85
2019-05-18T20:05:13.936Z,29.65
2019-05-18T20:07:47.645Z,28.75
2019-05-18T20:10:22.446Z,26.60
2019-05-18T20:12:58.906Z,36.23
2019-05-18T20:15:33.594Z,33.08
2019-05-18T20:18:07.394Z,40.67
2019-05-18T20:20:41.200Z,40.73
2019-05-18T20:23:15.142Z,40.90
2019-05-18T20:25:49.107Z,36.55
2019-05-18T20:28:24.382Z,39.58
2019-05-18T20:30:58.123Z,35.78
2019-05-18T20:33:32.116Z,37.45
2019-05-18T20:36:05.918Z,41.95
2019-05-18T20:38:41.182Z,43.92
2019-05-18T20:41:15.056Z,41.90
2019-05-18T20:43:48.916Z,39.18
2019-05-18T20:46:22.565Z,39.42
2019-05-18T20:48:56.263Z,42.73
2019-05-18T20:51:30.474Z,33.40
2019-05-18T20:54:04.347Z,35.20
2019-05-18T20:56:56.087Z,35.98
2019-05-18T20:59:37.694Z,30.12
2019-05-18T21:02:13.877Z,36.05
2019-05-18T21:04:47.674Z,34.45
2019-05-18T21:07:21.257Z,34.15
2019-05-18T21:09:55.071Z,36.77
2019-05-18T21:12:29.136Z,34.85
2019-05-18T21:15:05.813Z,32.60
2019-05-18T21:17:39.568Z,31.62
2019-05-18T21:20:14.211Z,35.45
2019-05-18T21:22:48.092Z,30.60
2019-05-18T21:25:21.914Z,31.20
2019-05-18T21:27:55.813Z,29.63
2019-05-18T21:30:29.423Z,30.40
2019-05-18T21:33:03.107Z,28.67
2019-05-18T21:35:37.325Z,30.23
2019-05-18T21:38:11.112Z,30.95
2019-05-18T21:40:45.723Z,26.85
2019-05-18T21:43:20.198Z,29.50
2019-05-18T21:45:53.912Z,29.85
2019-05-18T21:48:28.504Z,27.00
2019-05-18T21:51:02.410Z,32.55
2019-05-18T21:53:36.126Z,29.90
2019-05-18T21:56:10.331Z,29.18
2019-05-18T21:58:43.989Z,32.17
2019-05-18T22:01:17.613Z,30.15
2019-05-18T22:03:51.291Z,30.60
2019-05-18T22:06:26.718Z,30.25
2019-05-18T22:09:00.280Z,32.85
2019-05-18T22:11:36.020Z,29.67
2019-05-18T22:14:09.692Z,28.62
2019-05-18T22:16:43.815Z,35.20
2019-05-18T22:19:17.482Z,40.20
2019-05-18T22:21:51.192Z,39.83
2019-05-18T22:24:25.806Z,40.80
2019-05-18T22:26:59.899Z,34.50
2019-05-18T22:29:33.480Z,34.45
2019-05-18T22:32:07.272Z,34.03
2019-05-18T22:34:45.481Z,32.65
2019-05-18T22:37:19.189Z,30.10
2019-05-18T22:39:53.014Z,27.42
2019-05-18T22:42:26.686Z,30.52
2019-05-18T22:45:00.393Z,27.90
2019-05-18T22:47:34.206Z,24.60
2019-05-18T22:50:09.973Z,24.98
2019-05-18T22:52:44.565Z,23.35
2019-05-18T22:55:18.348Z,26.30
2019-05-18T22:57:53.563Z,28.32
2019-05-18T23:00:27.241Z,28.42
2019-05-18T23:03:00.856Z,29.15
2019-05-18T23:05:35.033Z,24.05
2019-05-18T23:08:08.683Z,26.33
2019-05-18T23:10:42.346Z,26.33
2019-05-18T23:13:16.060Z,22.75
2019-05-18T23:15:49.922Z,24.12
2019-05-18T23:18:23.660Z,24.75
2019-05-18T23:20:57.415Z,21.27
2019-05-18T23:23:31.651Z,20.05
2019-05-18T23:26:05.532Z,19.02
2019-05-18T23:28:39.231Z,21.10
2019-05-18T23:31:12.902Z,17.87
2019-05-18T23:33:46.893Z,18.92
2019-05-18T23:36:20.769Z,16.90
2019-05-18T23:38:54.712Z,16.20
2019-05-18T23:41:28.382Z,18.30
2019-05-18T23:44:03.082Z,16.70
2019-05-18T23:46:37.232Z,15.45
2019-05-18T23:49:11.366Z,18.67
2019-05-18T23:51:45.109Z,18.00
2019-05-18T23:54:19.652Z,16.55
2019-05-18T23:56:53.398Z,18.20
2019-05-18T23:59:27.085Z,17.75
